Time;durP1;ratioP1;P1;durP2;ratioP2;P2;SDS_P1;SDS_P2;PMS_P1;PMS_P2;Temp;Humidity;BMP_temperature;BMP_pressure;BME280_temperature;BME280_humidity;BME280_pressure;Samples;Min_cycle;Max_cycle;Signal;HPM_P1;HPM_P2
2023/05/07 14:57:58;;;;;;;6.72;4.10;;;24.40;92.40;;;;;;3162253;27;20686;-75
2023/05/07 15:00:23;;;;;;;5.25;3.88;;;24.40;92.20;;;;;;4907522;29;20048;-74
2023/05/07 15:02:49;;;;;;;7.95;4.95;;;24.30;92.40;;;;;;4903335;29;20059;-74
2023/05/07 15:05:15;;;;;;;8.40;4.25;;;24.40;92.00;;;;;;4909892;29;20055;-74
2023/05/07 15:07:40;;;;;;;7.57;4.15;;;24.30;92.10;;;;;;4908501;29;20043;-73
2023/05/07 15:10:06;;;;;;;6.18;4.13;;;24.30;92.20;;;;;;4911278;29;20382;-74
2023/05/07 15:12:32;;;;;;;6.60;4.32;;;24.10;92.20;;;;;;4910390;29;20072;-74
2023/05/07 15:14:58;;;;;;;5.00;3.40;;;24.30;92.60;;;;;;4910141;29;20040;-74
2023/05/07 15:17:23;;;;;;;6.18;4.05;;;24.70;91.70;;;;;;4902139;29;20051;-74
2023/05/07 15:19:49;;;;;;;6.70;3.20;;;25.10;91.80;;;;;;4910260;29;20044;-74
2023/05/07 15:22:15;;;;;;;6.30;4.03;;;25.50;91.60;;;;;;4910825;29;20974;-74
2023/05/07 15:24:40;;;;;;;5.47;3.28;;;25.60;92.30;;;;;;4909431;29;20545;-75
2023/05/07 15:27:07;;;;;;;5.63;4.07;;;25.70;92.10;;;;;;4909704;29;20421;-71
2023/05/07 15:29:32;;;;;;;6.80;4.03;;;25.50;92.20;;;;;;4909140;29;20091;-71
2023/05/07 15:31:58;;;;;;;6.20;3.85;;;25.70;92.00;;;;;;4910393;29;20565;-71
2023/05/07 15:34:24;;;;;;;7.82;3.95;;;26.00;92.30;;;;;;4909407;29;20031;-71
2023/05/07 15:36:50;;;;;;;6.38;3.78;;;25.70;91.40;;;;;;4910131;29;20036;-71
2023/05/07 15:39:15;;;;;;;5.40;3.63;;;25.70;91.40;;;;;;4907766;29;20521;-71
2023/05/07 15:41:41;;;;;;;4.70;3.65;;;26.10;91.70;;;;;;4891946;29;20032;-71
2023/05/07 15:44:07;;;;;;;8.05;3.95;;;26.20;91.40;;;;;;4906432;29;20043;-71
2023/05/07 15:46:33;;;;;;;6.03;3.90;;;25.80;91.40;;;;;;4911009;29;20028;-71
2023/05/07 15:49:02;;;;;;;6.13;4.45;;;25.70;91.70;;;;;;4909670;29;20036;-71
2023/05/07 15:51:29;;;;;;;5.75;4.15;;;25.70;91.10;;;;;;4909842;29;20036;-71
2023/05/07 15:53:55;;;;;;;6.97;4.45;;;25.50;91.60;;;;;;4906207;29;20051;-71
2023/05/07 15:56:20;;;;;;;6.38;4.80;;;25.70;91.70;;;;;;4908191;29;20910;-71
2023/05/07 15:58:47;;;;;;;5.15;3.85;;;25.80;91.50;;;;;;4909743;29;20048;-71
2023/05/07 16:01:12;;;;;;;5.70;4.20;;;25.50;91.40;;;;;;4909211;29;20333;-72
2023/05/07 16:03:39;;;;;;;7.55;5.13;;;25.10;91.50;;;;;;4907955;29;20603;-71
2023/05/07 16:06:05;;;;;;;6.13;5.03;;;24.80;92.00;;;;;;4908492;29;20506;-71
2023/05/07 16:08:32;;;;;;;5.05;3.30;;;24.70;92.20;;;;;;4908669;29;20189;-71
2023/05/07 16:10:58;;;;;;;23.45;5.15;;;24.60;91.40;;;;;;4909951;29;20398;-71
2023/05/07 16:13:23;;;;;;;5.68;3.30;;;24.00;91.00;;;;;;4911980;29;20036;-72
2023/05/07 16:15:54;;;;;;;6.25;3.13;;;23.80;91.30;;;;;;4908021;29;20044;-71
2023/05/07 16:18:19;;;;;;;5.85;3.30;;;23.60;91.90;;;;;;4910043;29;20024;-71
2023/05/07 16:20:45;;;;;;;6.55;3.55;;;23.50;92.20;;;;;;4912352;29;20087;-71
2023/05/07 16:23:11;;;;;;;4.88;3.28;;;23.20;92.80;;;;;;4910472;29;20032;-71
2023/05/07 16:25:37;;;;;;;4.85;3.58;;;23.00;93.10;;;;;;4911005;29;20039;-71
2023/05/07 16:28:03;;;;;;;5.97;2.97;;;22.90;93.50;;;;;;4901937;29;20048;-71
2023/05/07 16:30:29;;;;;;;4.40;3.17;;;22.80;93.60;;;;;;4899126;29;20035;-71
2023/05/07 16:32:55;;;;;;;4.30;2.70;;;22.80;92.80;;;;;;4899075;29;20109;-71
2023/05/07 16:35:20;;;;;;;6.32;3.10;;;22.80;92.40;;;;;;4893739;29;20044;-72
2023/05/07 16:37:46;;;;;;;7.15;2.70;;;22.60;92.40;;;;;;4893252;29;20439;-71
2023/05/07 16:40:12;;;;;;;4.05;2.63;;;22.40;92.30;;;;;;4896026;29;20083;-71
2023/05/07 16:42:38;;;;;;;12.75;3.75;;;22.50;92.00;;;;;;4897218;29;20486;-72
2023/05/07 16:45:05;;;;;;;11.88;3.35;;;22.20;93.10;;;;;;4895876;29;20040;-72
2023/05/07 16:47:31;;;;;;;5.72;2.78;;;21.30;93.40;;;;;;4894001;29;20071;-71
2023/05/07 16:49:59;;;;;;;7.47;3.15;;;21.20;93.20;;;;;;4889296;29;20136;-72
2023/05/07 16:52:25;;;;;;;4.70;3.00;;;21.30;93.40;;;;;;4895531;29;20036;-73
2023/05/07 16:54:51;;;;;;;5.70;3.35;;;21.40;93.60;;;;;;4899052;29;20056;-72
2023/05/07 16:57:17;;;;;;;7.00;3.38;;;21.20;94.20;;;;;;4901930;29;20112;-72
2023/05/07 16:59:43;;;;;;;6.32;3.42;;;21.20;94.40;;;;;;4910213;29;20036;-73
2023/05/07 17:02:08;;;;;;;10.38;4.20;;;21.10;94.80;;;;;;4909413;29;20031;-73
2023/05/07 17:04:34;;;;;;;8.38;4.82;;;20.90;95.20;;;;;;4908821;29;20020;-72
2023/05/07 17:07:00;;;;;;;6.28;4.18;;;20.90;95.90;;;;;;4908849;29;20036;-73
2023/05/07 17:09:26;;;;;;;10.02;5.00;;;20.90;96.10;;;;;;4898108;29;20520;-73
2023/05/07 17:11:51;;;;;;;8.93;6.38;;;20.90;96.70;;;;;;4900360;29;20096;-73
2023/05/07 17:14:17;;;;;;;9.48;6.75;;;20.80;97.30;;;;;;4895903;29;20135;-74
2023/05/07 17:16:43;;;;;;;8.40;6.32;;;20.70;97.40;;;;;;4889553;29;20059;-73
2023/05/07 17:19:08;;;;;;;10.25;6.47;;;20.80;97.50;;;;;;4901247;29;20076;-73
2023/05/07 17:21:37;;;;;;;13.05;6.63;;;20.80;97.40;;;;;;4901587;29;20032;-72
2023/05/07 17:24:03;;;;;;;8.68;6.82;;;20.80;97.00;;;;;;4901105;29;20024;-73
2023/05/07 17:26:30;;;;;;;8.35;5.78;;;20.70;96.70;;;;;;4906800;29;20032;-73
2023/05/07 17:28:56;;;;;;;10.95;6.80;;;20.70;96.60;;;;;;4906002;29;20039;-72
2023/05/07 17:31:21;;;;;;;8.48;5.40;;;20.70;96.50;;;;;;4909050;29;20028;-72
2023/05/07 17:33:47;;;;;;;13.48;5.90;;;20.80;96.30;;;;;;4905162;29;20096;-72
2023/05/07 17:36:12;;;;;;;12.57;6.30;;;20.80;96.50;;;;;;4902026;29;20036;-72
2023/05/07 17:38:38;;;;;;;7.55;5.22;;;20.60;96.50;;;;;;4907392;29;20040;-72
2023/05/07 17:41:04;;;;;;;7.13;3.72;;;20.60;96.40;;;;;;4905700;29;20032;-72
2023/05/07 17:43:29;;;;;;;7.50;4.63;;;20.60;96.10;;;;;;4909800;29;20032;-72
2023/05/07 17:45:55;;;;;;;6.57;4.80;;;20.60;96.70;;;;;;4909945;29;20070;-71
2023/05/07 17:48:21;;;;;;;8.23;4.47;;;20.50;97.00;;;;;;4911141;29;20024;-72
2023/05/07 17:50:46;;;;;;;7.53;3.88;;;20.50;96.60;;;;;;4912375;29;20043;-72
2023/05/07 17:53:12;;;;;;;8.02;4.38;;;20.40;96.50;;;;;;4909560;29;20070;-72
2023/05/07 17:55:44;;;;;;;6.97;3.72;;;20.40;96.50;;;;;;4902706;29;20072;-71
2023/05/07 17:58:11;;;;;;;18.00;5.75;;;20.40;96.40;;;;;;4909921;29;20063;-72
2023/05/07 18:00:37;;;;;;;14.75;6.03;;;20.00;99.30;;;;;;4904334;29;20056;-72
2023/05/07 18:03:04;;;;;;;10.25;6.13;;;19.20;99.90;;;;;;4905048;29;20036;-72
2023/05/07 18:05:29;;;;;;;12.10;6.85;;;18.60;99.90;;;;;;4911344;29;20367;-71
2023/05/07 18:07:55;;;;;;;10.68;5.82;;;17.90;99.90;;;;;;4915070;29;20111;-72
2023/05/07 18:10:23;;;;;;;9.82;5.90;;;17.80;99.90;;;;;;4915549;29;20036;-72
2023/05/07 18:12:49;;;;;;;11.13;6.07;;;17.40;99.90;;;;;;4914993;29;20534;-72
2023/05/07 18:15:15;;;;;;;9.73;6.55;;;17.10;99.90;;;;;;4913134;29;20115;-72
2023/05/07 18:17:40;;;;;;;10.85;5.55;;;16.80;99.90;;;;;;4914704;29;20123;-72
2023/05/07 18:20:10;;;;;;;11.25;5.82;;;16.90;99.90;;;;;;4915133;29;20046;-71
2023/05/07 18:22:38;;;;;;;9.50;5.43;;;16.70;99.90;;;;;;4914716;29;20055;-70
2023/05/07 18:25:05;;;;;;;11.77;5.45;;;16.80;99.90;;;;;;4913905;29;20686;-71
2023/05/07 18:27:30;;;;;;;11.35;5.65;;;16.70;99.90;;;;;;4914792;29;20546;-71
2023/05/07 18:29:56;;;;;;;8.02;4.93;;;16.30;99.90;;;;;;4914503;29;20036;-71
2023/05/07 18:32:22;;;;;;;6.60;4.68;;;16.40;99.90;;;;;;4913510;29;20454;-71
2023/05/07 18:34:47;;;;;;;10.73;6.28;;;16.60;99.90;;;;;;4914753;29;20513;-71
2023/05/07 18:37:14;;;;;;;9.02;5.18;;;16.20;99.90;;;;;;4907541;29;20036;-71
2023/05/07 18:39:40;;;;;;;11.73;5.32;;;16.20;99.90;;;;;;4915181;29;20489;-72
2023/05/07 18:42:07;;;;;;;9.82;5.22;;;16.20;99.90;;;;;;4914550;29;20036;-70
2023/05/07 18:44:36;;;;;;;9.65;5.53;;;16.10;99.90;;;;;;4914713;29;20116;-73
2023/05/07 18:47:02;;;;;;;6.30;4.32;;;16.20;99.90;;;;;;4914733;29;20043;-72
2023/05/07 18:49:27;;;;;;;7.68;4.65;;;16.50;99.90;;;;;;4915265;29;20102;-72
2023/05/07 18:51:53;;;;;;;5.50;3.88;;;16.40;99.90;;;;;;4915135;29;20119;-73
2023/05/07 18:54:19;;;;;;;7.47;4.35;;;16.40;99.90;;;;;;4914292;29;20115;-73
2023/05/07 18:56:44;;;;;;;7.32;4.00;;;16.40;99.90;;;;;;4914585;29;20028;-73
2023/05/07 18:59:10;;;;;;;6.43;4.07;;;16.50;99.90;;;;;;4913874;29;20032;-73
2023/05/07 19:01:36;;;;;;;10.52;4.70;;;16.40;99.90;;;;;;4914456;29;20107;-73
2023/05/07 19:04:01;;;;;;;9.73;5.47;;;16.20;99.90;;;;;;4914809;29;20103;-72
2023/05/07 19:06:27;;;;;;;6.82;4.35;;;16.00;99.90;;;;;;4914747;29;20056;-73
2023/05/07 19:08:53;;;;;;;7.30;4.20;;;16.20;99.90;;;;;;4915063;29;20031;-73
2023/05/07 19:11:18;;;;;;;6.63;3.70;;;16.30;99.90;;;;;;4914991;29;20036;-73
2023/05/07 19:13:44;;;;;;;6.82;4.35;;;16.40;99.90;;;;;;4914230;29;20036;-73
2023/05/07 19:16:12;;;;;;;6.38;3.90;;;16.60;99.90;;;;;;4913127;29;20119;-72
2023/05/07 19:18:37;;;;;;;6.80;4.30;;;16.70;99.90;;;;;;4913705;29;20032;-72
2023/05/07 19:21:03;;;;;;;7.25;4.03;;;16.90;99.90;;;;;;4914010;29;20047;-73
2023/05/07 19:23:29;;;;;;;7.40;4.13;;;16.70;99.90;;;;;;4912288;29;20039;-72
2023/05/07 19:25:55;;;;;;;7.35;3.97;;;16.50;99.90;;;;;;4906445;29;20171;-73
2023/05/07 19:28:20;;;;;;;6.10;3.40;;;16.40;99.90;;;;;;4912056;29;20050;-73
2023/05/07 19:30:48;;;;;;;6.60;4.22;;;16.30;99.90;;;;;;4913942;29;20024;-72
2023/05/07 19:33:14;;;;;;;9.18;4.68;;;16.50;99.90;;;;;;4917426;29;20036;-73
2023/05/07 19:35:40;;;;;;;6.60;4.25;;;16.50;99.90;;;;;;4914028;29;20056;-72
2023/05/07 19:38:06;;;;;;;6.00;4.07;;;16.70;99.90;;;;;;4913754;29;20075;-73
2023/05/07 19:40:32;;;;;;;5.75;4.15;;;16.70;99.90;;;;;;4912192;29;20040;-73
2023/05/07 19:42:58;;;;;;;7.32;4.30;;;16.60;99.90;;;;;;4907600;29;20050;-72
2023/05/07 20:03:17;;;;;;;7.78;5.25;;;16.10;99.90;;;;;;5089557;27;21054;-73
2023/05/07 20:05:46;;;;;;;9.27;6.30;;;15.80;99.90;;;;;;5088225;28;20142;-73
2023/05/07 20:08:12;;;;;;;13.27;6.25;;;15.40;99.90;;;;;;5093334;28;20020;-73
2023/05/07 20:10:37;;;;;;;14.45;6.95;;;15.10;99.90;;;;;;5090110;28;20042;-73
2023/05/07 20:13:03;;;;;;;12.50;5.93;;;15.00;99.90;;;;;;5084943;28;20020;-73
2023/05/07 20:15:28;;;;;;;13.63;6.45;;;15.10;99.90;;;;;;5089699;28;20081;-73
2023/05/07 20:17:54;;;;;;;9.73;5.70;;;15.30;99.90;;;;;;5085973;28;20158;-73
2023/05/07 20:20:20;;;;;;;9.30;5.90;;;15.50;99.90;;;;;;5081710;28;20042;-73
2023/05/07 20:22:45;;;;;;;10.32;5.75;;;15.60;99.90;;;;;;5085694;28;20040;-73
2023/05/07 20:25:14;;;;;;;9.70;5.88;;;15.60;99.90;;;;;;5083311;28;20490;-74
2023/05/07 20:27:40;;;;;;;9.63;5.88;;;15.60;99.90;;;;;;5088124;28;20032;-73
2023/05/07 20:30:07;;;;;;;10.65;5.70;;;15.50;99.90;;;;;;5082606;28;20027;-73
2023/05/07 20:32:33;;;;;;;8.07;5.30;;;15.40;99.90;;;;;;5083924;28;20637;-73
2023/05/07 20:34:59;;;;;;;6.47;3.53;;;15.30;99.90;;;;;;5083879;28;20040;-73
2023/05/07 20:37:25;;;;;;;6.28;4.45;;;15.40;99.90;;;;;;5085218;28;20035;-73
2023/05/07 20:39:51;;;;;;;10.40;4.40;;;15.50;99.90;;;;;;5083718;28;20032;-73
2023/05/07 20:42:17;;;;;;;6.35;4.28;;;15.40;99.90;;;;;;5082909;28;20054;-72
2023/05/07 20:44:43;;;;;;;5.13;3.55;;;15.20;99.90;;;;;;5089924;28;20027;-72
2023/05/07 20:47:09;;;;;;;8.45;4.72;;;15.30;99.90;;;;;;5085573;28;20020;-73
2023/05/07 20:49:35;;;;;;;7.50;4.55;;;15.40;99.90;;;;;;5087125;28;20028;-72
2023/05/07 20:52:00;;;;;;;6.15;4.20;;;15.30;99.90;;;;;;5093121;28;20020;-73
2023/05/07 20:54:29;;;;;;;7.68;4.07;;;15.40;99.90;;;;;;5082866;28;20096;-73
2023/05/07 20:56:56;;;;;;;7.38;3.30;;;15.40;99.90;;;;;;5086930;28;20032;-73
2023/05/07 20:59:22;;;;;;;7.45;3.42;;;15.20;99.90;;;;;;5085117;28;20484;-73
2023/05/07 21:01:49;;;;;;;7.03;3.33;;;15.30;99.90;;;;;;5082474;28;20044;-73
2023/05/07 21:04:14;;;;;;;6.28;3.30;;;15.50;99.90;;;;;;5075257;28;20039;-73
2023/05/07 21:06:41;;;;;;;6.55;4.40;;;15.30;99.90;;;;;;5080343;28;20032;-73
2023/05/07 21:09:07;;;;;;;7.20;4.10;;;15.30;99.90;;;;;;5081293;28;20028;-72
2023/05/07 21:11:33;;;;;;;7.20;4.22;;;15.30;99.90;;;;;;5087168;28;20104;-73
2023/05/07 21:13:59;;;;;;;7.53;3.55;;;15.40;99.90;;;;;;5085597;28;20504;-73
2023/05/07 21:16:24;;;;;;;7.82;3.95;;;15.40;99.90;;;;;;5085859;28;20042;-73
2023/05/07 21:18:50;;;;;;;5.00;3.00;;;15.50;99.90;;;;;;5087488;28;20148;-73
2023/05/07 21:21:16;;;;;;;5.60;3.78;;;15.60;99.90;;;;;;5086713;28;20362;-73
2023/05/07 21:23:41;;;;;;;4.82;2.95;;;15.70;99.90;;;;;;5082457;28;20553;-73
2023/05/07 21:26:07;;;;;;;8.38;4.13;;;15.70;99.90;;;;;;5086288;28;20065;-73
2023/05/07 21:28:33;;;;;;;5.15;3.75;;;15.70;99.90;;;;;;5077933;28;20070;-74
2023/05/07 21:30:59;;;;;;;5.40;3.45;;;15.70;99.90;;;;;;5076589;28;20400;-73
2023/05/07 21:33:25;;;;;;;7.32;3.67;;;15.60;99.90;;;;;;5077324;28;20031;-73
2023/05/07 21:35:50;;;;;;;5.35;3.47;;;15.60;99.90;;;;;;5077366;28;20024;-73
2023/05/07 21:38:19;;;;;;;6.75;4.22;;;15.50;99.90;;;;;;5070399;28;20070;-73
2023/05/07 21:40:45;;;;;;;6.22;3.83;;;15.40;99.90;;;;;;5073179;28;20067;-73
2023/05/07 21:43:10;;;;;;;5.25;3.63;;;15.30;99.90;;;;;;5074978;28;20079;-73
2023/05/07 21:45:38;;;;;;;4.78;3.22;;;15.30;99.90;;;;;;5078812;28;20032;-73
2023/05/07 21:48:04;;;;;;;9.13;3.80;;;15.30;99.90;;;;;;5070888;28;20032;-73
2023/05/07 21:50:30;;;;;;;8.70;3.60;;;15.40;99.90;;;;;;5075386;28;20028;-73
2023/05/07 21:52:55;;;;;;;6.53;3.95;;;15.20;99.90;;;;;;5079386;28;20206;-73
2023/05/07 21:55:21;;;;;;;6.30;3.72;;;15.10;99.90;;;;;;5069937;28;20056;-73
2023/05/07 21:57:47;;;;;;;6.18;3.28;;;14.90;99.90;;;;;;5075721;28;20424;-73
2023/05/07 22:00:13;;;;;;;5.20;3.40;;;14.90;99.90;;;;;;5070994;28;20029;-73
2023/05/07 22:02:38;;;;;;;6.65;4.38;;;15.00;99.90;;;;;;5072202;28;20040;-73
2023/05/07 22:05:04;;;;;;;6.13;3.78;;;15.00;99.90;;;;;;5074868;28;20032;-73
2023/05/07 22:07:30;;;;;;;6.07;3.70;;;14.90;99.90;;;;;;5078187;28;20158;-73
2023/05/07 22:09:56;;;;;;;5.90;3.60;;;14.90;99.90;;;;;;5070477;28;20123;-73
2023/05/07 22:12:21;;;;;;;6.82;3.92;;;15.10;99.90;;;;;;5071424;28;20404;-73
2023/05/07 22:14:47;;;;;;;5.60;4.30;;;15.20;99.90;;;;;;5074644;28;20028;-73
2023/05/07 22:17:13;;;;;;;9.45;4.28;;;15.20;99.90;;;;;;5074745;28;20072;-73
2023/05/07 22:19:39;;;;;;;6.72;4.32;;;15.10;99.90;;;;;;5077255;28;20090;-73
2023/05/07 22:22:05;;;;;;;7.88;4.15;;;15.00;99.90;;;;;;5072979;28;20036;-73
2023/05/07 22:24:30;;;;;;;5.30;3.63;;;15.00;99.90;;;;;;5067813;28;20473;-73
2023/05/07 22:26:56;;;;;;;7.28;4.25;;;15.10;99.90;;;;;;5069567;28;20116;-73
2023/05/07 22:29:22;;;;;;;6.03;4.38;;;15.10;99.90;;;;;;5077286;28;20032;-73
2023/05/07 22:31:51;;;;;;;5.82;3.67;;;15.10;99.90;;;;;;5079866;28;20557;-73
2023/05/07 22:34:17;;;;;;;6.82;4.20;;;15.10;99.90;;;;;;5078852;28;20063;-72
2023/05/07 22:36:42;;;;;;;7.15;4.35;;;14.90;99.90;;;;;;5072575;28;20059;-73
2023/05/07 22:39:08;;;;;;;6.13;4.70;;;14.90;99.90;;;;;;5077976;28;20689;-73
2023/05/07 22:41:35;;;;;;;7.00;4.18;;;14.90;99.90;;;;;;5075773;28;20040;-73
2023/05/07 22:44:01;;;;;;;7.63;3.80;;;14.90;99.90;;;;;;5073317;28;20514;-73
2023/05/07 22:46:26;;;;;;;7.60;5.03;;;14.90;99.90;;;;;;5070605;28;20024;-73
2023/05/07 22:48:52;;;;;;;5.72;3.65;;;15.10;99.90;;;;;;5065720;28;20073;-73
2023/05/07 22:51:18;;;;;;;7.88;3.95;;;15.00;99.90;;;;;;5070414;28;20028;-73
2023/05/07 22:53:45;;;;;;;5.28;3.80;;;15.00;99.90;;;;;;5076685;28;20111;-73
2023/05/07 22:56:10;;;;;;;6.57;4.00;;;15.00;99.90;;;;;;5071468;28;20024;-73
2023/05/07 22:58:36;;;;;;;8.30;3.90;;;15.00;99.90;;;;;;5074071;28;20061;-73
2023/05/07 23:01:02;;;;;;;6.72;4.35;;;15.10;99.90;;;;;;5075943;28;20574;-73
2023/05/07 23:03:28;;;;;;;8.07;4.40;;;15.10;99.90;;;;;;5078500;28;20032;-73
2023/05/07 23:05:54;;;;;;;5.90;4.10;;;14.70;99.90;;;;;;5083867;28;20043;-74
2023/05/07 23:08:19;;;;;;;8.68;4.55;;;14.70;99.90;;;;;;5082828;28;20493;-73
2023/05/07 23:10:45;;;;;;;6.90;4.35;;;14.70;99.90;;;;;;5075671;28;20093;-73
2023/05/07 23:13:15;;;;;;;6.65;4.90;;;14.70;99.90;;;;;;5073249;28;20103;-74
2023/05/07 23:15:42;;;;;;;7.95;4.88;;;14.90;99.90;;;;;;5078089;28;20058;-74
2023/05/07 23:18:08;;;;;;;7.03;4.82;;;15.00;99.90;;;;;;5079718;28;20501;-73
2023/05/07 23:20:34;;;;;;;7.15;5.03;;;15.10;99.90;;;;;;5077412;28;20051;-74
2023/05/07 23:22:59;;;;;;;8.98;5.55;;;15.10;99.90;;;;;;5082077;28;20036;-73
2023/05/07 23:25:25;;;;;;;10.48;5.32;;;15.10;99.90;;;;;;5075213;28;20535;-74
2023/05/07 23:27:51;;;;;;;8.43;5.60;;;15.00;99.90;;;;;;5070746;28;20024;-73
2023/05/07 23:30:16;;;;;;;7.10;5.22;;;15.00;99.90;;;;;;5081019;28;20514;-73
2023/05/07 23:32:42;;;;;;;6.90;5.15;;;15.00;99.90;;;;;;5078295;28;20032;-73
2023/05/07 23:35:08;;;;;;;7.32;4.90;;;14.90;99.90;;;;;;5079488;28;20381;-73
2023/05/07 23:37:34;;;;;;;6.32;4.45;;;14.80;99.90;;;;;;5075975;28;20028;-73
2023/05/07 23:40:00;;;;;;;11.65;5.28;;;14.80;99.90;;;;;;5080346;28;20554;-73
2023/05/07 23:42:25;;;;;;;8.10;4.68;;;14.80;99.90;;;;;;5074013;28;20498;-74
2023/05/07 23:44:51;;;;;;;8.15;5.20;;;14.60;99.90;;;;;;5076300;28;20035;-73
2023/05/07 23:47:17;;;;;;;8.52;5.00;;;14.70;99.90;;;;;;5079603;28;20119;-73
2023/05/07 23:49:42;;;;;;;9.98;4.57;;;14.80;99.90;;;;;;5070078;28;20477;-74
2023/05/07 23:52:08;;;;;;;9.02;4.45;;;14.80;99.90;;;;;;5082364;28;20035;-73
2023/05/07 23:54:34;;;;;;;6.82;4.63;;;14.90;99.90;;;;;;5079188;28;20028;-73
2023/05/07 23:56:59;;;;;;;6.57;4.57;;;14.80;99.90;;;;;;5072653;28;20570;-73
2023/05/07 23:59:25;;;;;;;10.98;4.15;;;14.70;99.90;;;;;;5083445;28;20032;-73
